sensor_id;sensor_type;location;lat;lon;timestamp;P1;durP1;ratioP1;P2;durP2;ratioP2
10467;SDS011;5281;48.878;9.394;2023-07-08T00:00:09;10.63;;;5.47;;
10467;SDS011;5281;48.878;9.394;2023-07-08T00:02:41;7.10;;;5.28;;
10467;SDS011;5281;48.878;9.394;2023-07-08T00:05:09;7.68;;;5.60;;
10467;SDS011;5281;48.878;9.394;2023-07-08T00:07:36;7.97;;;5.75;;
10467;SDS011;5281;48.878;9.394;2023-07-08T00:10:09;9.48;;;5.20;;
10467;SDS011;5281;48.878;9.394;2023-07-08T00:12:38;7.25;;;5.22;;
10467;SDS011;5281;48.878;9.394;2023-07-08T00:15:05;6.80;;;5.50;;
10467;SDS011;5281;48.878;9.394;2023-07-08T00:17:33;6.35;;;5.05;;
10467;SDS011;5281;48.878;9.394;2023-07-08T00:20:01;6.53;;;4.80;;
10467;SDS011;5281;48.878;9.394;2023-07-08T00:22:34;6.90;;;4.78;;
10467;SDS011;5281;48.878;9.394;2023-07-08T00:25:06;7.03;;;5.05;;
10467;SDS011;5281;48.878;9.394;2023-07-08T00:27:33;8.68;;;5.13;;
10467;SDS011;5281;48.878;9.394;2023-07-08T00:29:59;6.85;;;5.10;;
10467;SDS011;5281;48.878;9.394;2023-07-08T00:32:26;7.28;;;5.10;;
10467;SDS011;5281;48.878;9.394;2023-07-08T00:34:53;6.57;;;5.05;;
10467;SDS011;5281;48.878;9.394;2023-07-08T00:37:21;8.55;;;5.50;;
10467;SDS011;5281;48.878;9.394;2023-07-08T00:39:47;9.02;;;5.47;;
10467;SDS011;5281;48.878;9.394;2023-07-08T00:42:16;6.68;;;5.10;;
10467;SDS011;5281;48.878;9.394;2023-07-08T00:44:44;7.22;;;5.30;;
10467;SDS011;5281;48.878;9.394;2023-07-08T00:47:11;6.15;;;5.05;;
10467;SDS011;5281;48.878;9.394;2023-07-08T00:49:42;6.13;;;4.80;;
10467;SDS011;5281;48.878;9.394;2023-07-08T00:52:15;6.53;;;5.05;;
10467;SDS011;5281;48.878;9.394;2023-07-08T00:54:45;8.77;;;5.32;;
10467;SDS011;5281;48.878;9.394;2023-07-08T00:57:14;7.05;;;5.38;;
10467;SDS011;5281;48.878;9.394;2023-07-08T00:59:42;7.68;;;5.10;;
10467;SDS011;5281;48.878;9.394;2023-07-08T01:02:13;7.28;;;4.80;;
10467;SDS011;5281;48.878;9.394;2023-07-08T01:04:44;7.43;;;5.40;;
10467;SDS011;5281;48.878;9.394;2023-07-08T01:07:18;5.50;;;4.40;;
10467;SDS011;5281;48.878;9.394;2023-07-08T01:09:48;7.80;;;5.05;;
10467;SDS011;5281;48.878;9.394;2023-07-08T01:12:19;6.57;;;5.05;;
10467;SDS011;5281;48.878;9.394;2023-07-08T01:14:50;6.85;;;5.15;;
10467;SDS011;5281;48.878;9.394;2023-07-08T01:17:19;8.00;;;5.07;;
10467;SDS011;5281;48.878;9.394;2023-07-08T01:19:47;8.30;;;5.63;;
10467;SDS011;5281;48.878;9.394;2023-07-08T01:22:17;8.13;;;4.65;;
10467;SDS011;5281;48.878;9.394;2023-07-08T01:24:45;6.63;;;5.20;;
10467;SDS011;5281;48.878;9.394;2023-07-08T01:27:13;6.40;;;5.00;;
10467;SDS011;5281;48.878;9.394;2023-07-08T01:29:42;6.88;;;5.28;;
10467;SDS011;5281;48.878;9.394;2023-07-08T01:32:10;7.85;;;5.80;;
10467;SDS011;5281;48.878;9.394;2023-07-08T01:34:43;7.57;;;5.35;;
10467;SDS011;5281;48.878;9.394;2023-07-08T01:37:26;6.15;;;4.78;;
10467;SDS011;5281;48.878;9.394;2023-07-08T01:39:55;8.00;;;5.15;;
10467;SDS011;5281;48.878;9.394;2023-07-08T01:42:21;6.75;;;4.80;;
10467;SDS011;5281;48.878;9.394;2023-07-08T01:44:48;9.20;;;4.95;;
10467;SDS011;5281;48.878;9.394;2023-07-08T01:47:16;5.80;;;5.10;;
10467;SDS011;5281;48.878;9.394;2023-07-08T01:49:45;8.20;;;5.22;;
10467;SDS011;5281;48.878;9.394;2023-07-08T01:52:13;7.07;;;5.07;;
10467;SDS011;5281;48.878;9.394;2023-07-08T01:54:43;6.65;;;4.93;;
10467;SDS011;5281;48.878;9.394;2023-07-08T01:57:10;5.63;;;4.57;;
10467;SDS011;5281;48.878;9.394;2023-07-08T01:59:37;5.38;;;4.68;;
10467;SDS011;5281;48.878;9.394;2023-07-08T02:02:03;8.73;;;4.95;;
10467;SDS011;5281;48.878;9.394;2023-07-08T02:04:30;6.32;;;5.05;;
10467;SDS011;5281;48.878;9.394;2023-07-08T02:06:58;6.22;;;4.85;;
10467;SDS011;5281;48.878;9.394;2023-07-08T02:09:26;6.45;;;4.57;;
10467;SDS011;5281;48.878;9.394;2023-07-08T02:11:54;9.10;;;4.93;;
10467;SDS011;5281;48.878;9.394;2023-07-08T02:14:21;6.43;;;4.88;;
10467;SDS011;5281;48.878;9.394;2023-07-08T02:16:48;6.75;;;5.05;;
10467;SDS011;5281;48.878;9.394;2023-07-08T02:19:14;10.75;;;5.07;;
10467;SDS011;5281;48.878;9.394;2023-07-08T02:21:41;6.32;;;4.88;;
10467;SDS011;5281;48.878;9.394;2023-07-08T02:24:08;5.75;;;4.80;;
10467;SDS011;5281;48.878;9.394;2023-07-08T02:26:35;5.95;;;5.13;;
10467;SDS011;5281;48.878;9.394;2023-07-08T02:29:03;7.10;;;5.00;;
10467;SDS011;5281;48.878;9.394;2023-07-08T02:31:29;7.65;;;4.78;;
10467;SDS011;5281;48.878;9.394;2023-07-08T02:33:56;6.53;;;4.80;;
10467;SDS011;5281;48.878;9.394;2023-07-08T02:36:23;5.93;;;4.60;;
10467;SDS011;5281;48.878;9.394;2023-07-08T02:38:51;6.22;;;4.75;;
10467;SDS011;5281;48.878;9.394;2023-07-08T02:41:17;7.32;;;4.93;;
10467;SDS011;5281;48.878;9.394;2023-07-08T02:43:44;6.53;;;4.90;;
10467;SDS011;5281;48.878;9.394;2023-07-08T02:46:12;8.57;;;5.68;;
10467;SDS011;5281;48.878;9.394;2023-07-08T02:48:39;6.65;;;5.22;;
10467;SDS011;5281;48.878;9.394;2023-07-08T02:51:06;6.80;;;5.45;;
10467;SDS011;5281;48.878;9.394;2023-07-08T02:53:33;8.05;;;5.45;;
10467;SDS011;5281;48.878;9.394;2023-07-08T02:56:00;7.03;;;5.07;;
10467;SDS011;5281;48.878;9.394;2023-07-08T02:58:27;7.75;;;4.75;;
10467;SDS011;5281;48.878;9.394;2023-07-08T03:00:54;6.38;;;5.03;;
10467;SDS011;5281;48.878;9.394;2023-07-08T03:03:25;7.45;;;5.07;;
10467;SDS011;5281;48.878;9.394;2023-07-08T03:05:54;6.20;;;4.78;;
10467;SDS011;5281;48.878;9.394;2023-07-08T03:08:21;7.55;;;4.93;;
10467;SDS011;5281;48.878;9.394;2023-07-08T03:10:53;5.43;;;4.85;;
10467;SDS011;5281;48.878;9.394;2023-07-08T03:13:22;6.38;;;4.60;;
10467;SDS011;5281;48.878;9.394;2023-07-08T03:15:49;7.57;;;5.03;;
10467;SDS011;5281;48.878;9.394;2023-07-08T03:18:16;7.65;;;4.80;;
10467;SDS011;5281;48.878;9.394;2023-07-08T03:20:44;7.35;;;5.60;;
10467;SDS011;5281;48.878;9.394;2023-07-08T03:23:13;5.50;;;4.63;;
10467;SDS011;5281;48.878;9.394;2023-07-08T03:25:40;6.88;;;4.63;;
10467;SDS011;5281;48.878;9.394;2023-07-08T03:28:07;8.82;;;5.28;;
10467;SDS011;5281;48.878;9.394;2023-07-08T03:30:40;7.43;;;5.35;;
10467;SDS011;5281;48.878;9.394;2023-07-08T03:33:07;5.78;;;4.88;;
10467;SDS011;5281;48.878;9.394;2023-07-08T03:35:34;8.43;;;4.97;;
10467;SDS011;5281;48.878;9.394;2023-07-08T03:38:02;6.53;;;5.15;;
10467;SDS011;5281;48.878;9.394;2023-07-08T03:40:29;5.93;;;4.72;;
10467;SDS011;5281;48.878;9.394;2023-07-08T03:42:56;8.48;;;5.15;;
10467;SDS011;5281;48.878;9.394;2023-07-08T03:45:23;7.35;;;5.00;;
10467;SDS011;5281;48.878;9.394;2023-07-08T03:47:50;5.28;;;4.65;;
10467;SDS011;5281;48.878;9.394;2023-07-08T03:50:18;7.03;;;5.10;;
10467;SDS011;5281;48.878;9.394;2023-07-08T03:52:46;6.68;;;4.60;;
10467;SDS011;5281;48.878;9.394;2023-07-08T03:55:14;7.50;;;4.93;;
10467;SDS011;5281;48.878;9.394;2023-07-08T03:57:42;6.90;;;5.47;;
10467;SDS011;5281;48.878;9.394;2023-07-08T04:00:09;11.52;;;4.95;;
10467;SDS011;5281;48.878;9.394;2023-07-08T04:02:37;6.53;;;4.80;;
10467;SDS011;5281;48.878;9.394;2023-07-08T04:05:04;7.15;;;5.03;;
10467;SDS011;5281;48.878;9.394;2023-07-08T04:07:33;7.80;;;4.70;;
10467;SDS011;5281;48.878;9.394;2023-07-08T04:10:00;6.22;;;4.53;;
10467;SDS011;5281;48.878;9.394;2023-07-08T04:12:28;7.07;;;5.30;;
10467;SDS011;5281;48.878;9.394;2023-07-08T04:14:54;6.70;;;5.05;;
10467;SDS011;5281;48.878;9.394;2023-07-08T04:17:21;7.13;;;4.68;;
10467;SDS011;5281;48.878;9.394;2023-07-08T04:19:49;7.90;;;5.05;;
10467;SDS011;5281;48.878;9.394;2023-07-08T04:22:15;6.20;;;4.78;;
10467;SDS011;5281;48.878;9.394;2023-07-08T04:24:42;7.78;;;4.65;;
10467;SDS011;5281;48.878;9.394;2023-07-08T04:27:11;6.57;;;4.82;;
10467;SDS011;5281;48.878;9.394;2023-07-08T04:29:41;5.50;;;4.60;;
10467;SDS011;5281;48.878;9.394;2023-07-08T04:32:08;6.28;;;4.35;;
10467;SDS011;5281;48.878;9.394;2023-07-08T04:34:35;5.35;;;4.40;;
10467;SDS011;5281;48.878;9.394;2023-07-08T04:37:02;6.57;;;5.07;;
10467;SDS011;5281;48.878;9.394;2023-07-08T04:39:30;6.68;;;4.85;;
10467;SDS011;5281;48.878;9.394;2023-07-08T04:41:57;7.32;;;4.85;;
10467;SDS011;5281;48.878;9.394;2023-07-08T04:44:23;5.90;;;4.75;;
10467;SDS011;5281;48.878;9.394;2023-07-08T04:46:54;6.90;;;5.10;;
10467;SDS011;5281;48.878;9.394;2023-07-08T04:49:22;5.53;;;4.55;;
10467;SDS011;5281;48.878;9.394;2023-07-08T04:51:56;6.18;;;4.80;;
10467;SDS011;5281;48.878;9.394;2023-07-08T04:54:23;6.38;;;4.55;;
10467;SDS011;5281;48.878;9.394;2023-07-08T04:56:50;6.75;;;4.65;;
10467;SDS011;5281;48.878;9.394;2023-07-08T04:59:18;8.75;;;4.70;;
10467;SDS011;5281;48.878;9.394;2023-07-08T05:01:46;6.20;;;4.88;;
10467;SDS011;5281;48.878;9.394;2023-07-08T05:04:15;6.88;;;4.63;;
10467;SDS011;5281;48.878;9.394;2023-07-08T05:06:43;6.97;;;4.72;;
10467;SDS011;5281;48.878;9.394;2023-07-08T05:09:10;7.63;;;4.88;;
10467;SDS011;5281;48.878;9.394;2023-07-08T05:11:37;5.75;;;4.28;;
10467;SDS011;5281;48.878;9.394;2023-07-08T05:14:04;5.13;;;4.38;;
10467;SDS011;5281;48.878;9.394;2023-07-08T05:16:32;7.65;;;5.10;;
10467;SDS011;5281;48.878;9.394;2023-07-08T05:19:00;6.03;;;4.55;;
10467;SDS011;5281;48.878;9.394;2023-07-08T05:21:28;6.15;;;4.57;;
10467;SDS011;5281;48.878;9.394;2023-07-08T05:23:58;7.22;;;5.00;;
10467;SDS011;5281;48.878;9.394;2023-07-08T05:26:25;7.45;;;4.95;;
10467;SDS011;5281;48.878;9.394;2023-07-08T05:28:52;6.25;;;4.65;;
10467;SDS011;5281;48.878;9.394;2023-07-08T05:31:19;6.00;;;4.57;;
10467;SDS011;5281;48.878;9.394;2023-07-08T05:33:46;6.13;;;4.65;;
10467;SDS011;5281;48.878;9.394;2023-07-08T05:36:12;6.05;;;4.57;;
10467;SDS011;5281;48.878;9.394;2023-07-08T05:38:40;6.72;;;5.07;;
10467;SDS011;5281;48.878;9.394;2023-07-08T05:41:07;7.85;;;4.70;;
10467;SDS011;5281;48.878;9.394;2023-07-08T05:43:34;5.85;;;4.57;;
10467;SDS011;5281;48.878;9.394;2023-07-08T05:46:01;5.55;;;4.50;;
10467;SDS011;5281;48.878;9.394;2023-07-08T05:48:28;6.05;;;4.35;;
10467;SDS011;5281;48.878;9.394;2023-07-08T05:50:55;6.13;;;5.10;;
10467;SDS011;5281;48.878;9.394;2023-07-08T05:53:22;6.75;;;4.68;;
10467;SDS011;5281;48.878;9.394;2023-07-08T05:55:50;7.45;;;4.75;;
10467;SDS011;5281;48.878;9.394;2023-07-08T05:58:17;6.28;;;4.47;;
10467;SDS011;5281;48.878;9.394;2023-07-08T06:00:44;8.98;;;4.50;;
10467;SDS011;5281;48.878;9.394;2023-07-08T06:03:11;5.05;;;4.13;;
10467;SDS011;5281;48.878;9.394;2023-07-08T06:05:38;7.20;;;4.60;;
10467;SDS011;5281;48.878;9.394;2023-07-08T06:08:05;6.68;;;5.00;;
10467;SDS011;5281;48.878;9.394;2023-07-08T06:10:32;8.73;;;4.90;;
10467;SDS011;5281;48.878;9.394;2023-07-08T06:13:00;6.70;;;5.22;;
10467;SDS011;5281;48.878;9.394;2023-07-08T06:15:27;6.10;;;4.82;;
10467;SDS011;5281;48.878;9.394;2023-07-08T06:17:54;7.13;;;5.10;;
10467;SDS011;5281;48.878;9.394;2023-07-08T06:20:21;7.18;;;5.53;;
10467;SDS011;5281;48.878;9.394;2023-07-08T06:22:47;6.22;;;5.47;;
10467;SDS011;5281;48.878;9.394;2023-07-08T06:25:15;7.13;;;5.22;;
10467;SDS011;5281;48.878;9.394;2023-07-08T06:27:42;5.22;;;4.72;;
10467;SDS011;5281;48.878;9.394;2023-07-08T06:30:10;7.60;;;5.22;;
10467;SDS011;5281;48.878;9.394;2023-07-08T06:32:37;7.18;;;4.85;;
10467;SDS011;5281;48.878;9.394;2023-07-08T06:35:04;7.63;;;5.05;;
10467;SDS011;5281;48.878;9.394;2023-07-08T06:37:31;5.18;;;4.68;;
10467;SDS011;5281;48.878;9.394;2023-07-08T06:39:58;5.97;;;5.32;;
10467;SDS011;5281;48.878;9.394;2023-07-08T06:42:25;11.82;;;10.73;;
10467;SDS011;5281;48.878;9.394;2023-07-08T06:44:52;20.13;;;17.30;;
10467;SDS011;5281;48.878;9.394;2023-07-08T06:47:20;5.57;;;4.82;;
10467;SDS011;5281;48.878;9.394;2023-07-08T06:49:48;7.93;;;7.13;;
10467;SDS011;5281;48.878;9.394;2023-07-08T06:52:14;6.28;;;5.05;;
10467;SDS011;5281;48.878;9.394;2023-07-08T06:54:41;8.55;;;7.70;;
10467;SDS011;5281;48.878;9.394;2023-07-08T06:57:08;6.15;;;5.55;;
10467;SDS011;5281;48.878;9.394;2023-07-08T06:59:34;6.00;;;5.40;;
10467;SDS011;5281;48.878;9.394;2023-07-08T07:02:01;7.03;;;4.68;;
10467;SDS011;5281;48.878;9.394;2023-07-08T07:04:30;6.35;;;5.28;;
10467;SDS011;5281;48.878;9.394;2023-07-08T07:06:57;7.07;;;5.40;;
10467;SDS011;5281;48.878;9.394;2023-07-08T07:09:24;7.65;;;5.15;;
10467;SDS011;5281;48.878;9.394;2023-07-08T07:11:50;7.00;;;4.50;;
10467;SDS011;5281;48.878;9.394;2023-07-08T07:14:17;7.55;;;4.95;;
10467;SDS011;5281;48.878;9.394;2023-07-08T07:16:44;6.22;;;4.47;;
10467;SDS011;5281;48.878;9.394;2023-07-08T07:19:10;13.07;;;5.00;;
10467;SDS011;5281;48.878;9.394;2023-07-08T07:21:38;5.90;;;4.65;;
10467;SDS011;5281;48.878;9.394;2023-07-08T07:24:05;7.85;;;4.75;;
10467;SDS011;5281;48.878;9.394;2023-07-08T07:26:33;9.18;;;4.90;;
10467;SDS011;5281;48.878;9.394;2023-07-08T07:29:01;8.68;;;5.25;;
10467;SDS011;5281;48.878;9.394;2023-07-08T07:31:28;6.97;;;4.90;;
10467;SDS011;5281;48.878;9.394;2023-07-08T07:33:54;6.40;;;5.10;;
10467;SDS011;5281;48.878;9.394;2023-07-08T07:36:22;6.60;;;4.50;;
10467;SDS011;5281;48.878;9.394;2023-07-08T07:38:50;7.07;;;5.03;;
10467;SDS011;5281;48.878;9.394;2023-07-08T07:41:17;5.60;;;4.82;;
10467;SDS011;5281;48.878;9.394;2023-07-08T07:43:43;11.02;;;5.88;;
10467;SDS011;5281;48.878;9.394;2023-07-08T07:46:10;19.73;;;6.05;;
10467;SDS011;5281;48.878;9.394;2023-07-08T07:48:37;11.23;;;5.40;;
10467;SDS011;5281;48.878;9.394;2023-07-08T07:51:04;8.95;;;5.10;;
10467;SDS011;5281;48.878;9.394;2023-07-08T07:53:35;7.57;;;5.38;;
10467;SDS011;5281;48.878;9.394;2023-07-08T07:56:03;6.00;;;5.03;;
10467;SDS011;5281;48.878;9.394;2023-07-08T07:58:30;9.57;;;6.15;;
10467;SDS011;5281;48.878;9.394;2023-07-08T08:00:57;7.68;;;5.47;;
10467;SDS011;5281;48.878;9.394;2023-07-08T08:03:24;6.30;;;5.03;;
10467;SDS011;5281;48.878;9.394;2023-07-08T08:05:51;8.77;;;5.00;;
10467;SDS011;5281;48.878;9.394;2023-07-08T08:08:19;6.95;;;4.70;;
10467;SDS011;5281;48.878;9.394;2023-07-08T08:10:47;7.38;;;4.82;;
10467;SDS011;5281;48.878;9.394;2023-07-08T08:13:15;6.18;;;4.70;;
10467;SDS011;5281;48.878;9.394;2023-07-08T08:15:42;6.05;;;4.90;;
10467;SDS011;5281;48.878;9.394;2023-07-08T08:18:08;6.45;;;4.43;;
10467;SDS011;5281;48.878;9.394;2023-07-08T08:20:35;6.90;;;4.75;;
10467;SDS011;5281;48.878;9.394;2023-07-08T08:23:04;9.77;;;5.18;;
10467;SDS011;5281;48.878;9.394;2023-07-08T08:25:31;5.93;;;4.70;;
10467;SDS011;5281;48.878;9.394;2023-07-08T08:27:58;5.70;;;4.70;;
10467;SDS011;5281;48.878;9.394;2023-07-08T08:30:26;7.20;;;4.95;;
10467;SDS011;5281;48.878;9.394;2023-07-08T08:32:53;8.55;;;5.28;;
10467;SDS011;5281;48.878;9.394;2023-07-08T08:35:19;8.63;;;4.72;;
10467;SDS011;5281;48.878;9.394;2023-07-08T08:37:46;6.68;;;4.50;;
10467;SDS011;5281;48.878;9.394;2023-07-08T08:40:13;7.72;;;4.82;;
10467;SDS011;5281;48.878;9.394;2023-07-08T08:42:44;10.60;;;4.53;;
10467;SDS011;5281;48.878;9.394;2023-07-08T08:45:18;8.93;;;4.45;;
10467;SDS011;5281;48.878;9.394;2023-07-08T08:47:48;8.45;;;5.05;;
10467;SDS011;5281;48.878;9.394;2023-07-08T08:50:24;7.57;;;6.40;;
10467;SDS011;5281;48.878;9.394;2023-07-08T08:52:56;6.07;;;4.90;;
10467;SDS011;5281;48.878;9.394;2023-07-08T08:55:25;4.68;;;4.07;;
10467;SDS011;5281;48.878;9.394;2023-07-08T08:57:55;7.30;;;4.32;;
10467;SDS011;5281;48.878;9.394;2023-07-08T09:00:31;8.13;;;4.50;;
10467;SDS011;5281;48.878;9.394;2023-07-08T09:03:09;6.55;;;4.43;;
10467;SDS011;5281;48.878;9.394;2023-07-08T09:05:38;5.85;;;4.22;;
10467;SDS011;5281;48.878;9.394;2023-07-08T09:08:08;5.47;;;4.07;;
10467;SDS011;5281;48.878;9.394;2023-07-08T09:10:42;5.13;;;3.80;;
10467;SDS011;5281;48.878;9.394;2023-07-08T09:13:14;6.63;;;3.80;;
10467;SDS011;5281;48.878;9.394;2023-07-08T09:15:47;5.80;;;3.65;;
10467;SDS011;5281;48.878;9.394;2023-07-08T09:18:21;5.28;;;4.05;;
10467;SDS011;5281;48.878;9.394;2023-07-08T09:20:53;23.65;;;6.22;;
10467;SDS011;5281;48.878;9.394;2023-07-08T09:23:22;7.18;;;3.90;;
10467;SDS011;5281;48.878;9.394;2023-07-08T09:25:52;7.10;;;4.38;;
10467;SDS011;5281;48.878;9.394;2023-07-08T09:28:21;5.70;;;4.00;;
10467;SDS011;5281;48.878;9.394;2023-07-08T09:31:03;5.90;;;3.63;;
10467;SDS011;5281;48.878;9.394;2023-07-08T09:33:36;5.28;;;3.97;;
10467;SDS011;5281;48.878;9.394;2023-07-08T09:36:06;11.13;;;4.40;;
10467;SDS011;5281;48.878;9.394;2023-07-08T09:38:43;24.42;;;5.13;;
10467;SDS011;5281;48.878;9.394;2023-07-08T09:41:12;8.50;;;3.80;;
10467;SDS011;5281;48.878;9.394;2023-07-08T09:43:39;5.93;;;3.78;;
10467;SDS011;5281;48.878;9.394;2023-07-08T09:46:10;8.52;;;3.95;;
10467;SDS011;5281;48.878;9.394;2023-07-08T09:48:41;5.05;;;3.90;;
10467;SDS011;5281;48.878;9.394;2023-07-08T09:51:08;4.88;;;3.80;;
10467;SDS011;5281;48.878;9.394;2023-07-08T09:53:35;5.70;;;4.10;;
10467;SDS011;5281;48.878;9.394;2023-07-08T09:56:02;5.25;;;3.63;;
10467;SDS011;5281;48.878;9.394;2023-07-08T09:58:30;31.05;;;6.07;;
10467;SDS011;5281;48.878;9.394;2023-07-08T10:01:08;7.90;;;4.13;;
10467;SDS011;5281;48.878;9.394;2023-07-08T10:03:37;5.88;;;4.15;;
10467;SDS011;5281;48.878;9.394;2023-07-08T10:06:10;6.57;;;3.75;;
10467;SDS011;5281;48.878;9.394;2023-07-08T10:08:43;5.53;;;3.80;;
10467;SDS011;5281;48.878;9.394;2023-07-08T10:11:12;8.95;;;3.50;;
10467;SDS011;5281;48.878;9.394;2023-07-08T10:13:45;5.47;;;3.05;;
10467;SDS011;5281;48.878;9.394;2023-07-08T10:16:17;5.93;;;3.40;;
10467;SDS011;5281;48.878;9.394;2023-07-08T10:18:48;3.95;;;3.05;;
10467;SDS011;5281;48.878;9.394;2023-07-08T10:21:20;5.43;;;2.70;;
10467;SDS011;5281;48.878;9.394;2023-07-08T10:23:54;7.75;;;3.08;;
10467;SDS011;5281;48.878;9.394;2023-07-08T10:26:29;4.53;;;2.78;;
10467;SDS011;5281;48.878;9.394;2023-07-08T10:29:03;4.10;;;3.00;;
10467;SDS011;5281;48.878;9.394;2023-07-08T10:31:40;5.30;;;2.90;;
10467;SDS011;5281;48.878;9.394;2023-07-08T10:34:18;6.15;;;3.38;;
10467;SDS011;5281;48.878;9.394;2023-07-08T10:36:58;7.80;;;3.05;;
10467;SDS011;5281;48.878;9.394;2023-07-08T10:39:43;6.55;;;2.97;;
10467;SDS011;5281;48.878;9.394;2023-07-08T10:42:23;6.05;;;3.22;;
10467;SDS011;5281;48.878;9.394;2023-07-08T10:45:02;4.40;;;2.67;;
10467;SDS011;5281;48.878;9.394;2023-07-08T10:47:40;5.07;;;3.20;;
10467;SDS011;5281;48.878;9.394;2023-07-08T10:50:26;4.35;;;3.10;;
10467;SDS011;5281;48.878;9.394;2023-07-08T10:53:13;3.75;;;2.75;;
10467;SDS011;5281;48.878;9.394;2023-07-08T10:55:55;5.88;;;3.83;;
10467;SDS011;5281;48.878;9.394;2023-07-08T10:58:28;8.52;;;3.60;;
10467;SDS011;5281;48.878;9.394;2023-07-08T11:01:07;5.28;;;3.83;;
10467;SDS011;5281;48.878;9.394;2023-07-08T11:06:33;6.05;;;3.67;;
10467;SDS011;5281;48.878;9.394;2023-07-08T11:09:12;4.22;;;2.80;;
10467;SDS011;5281;48.878;9.394;2023-07-08T11:11:43;5.43;;;2.60;;
10467;SDS011;5281;48.878;9.394;2023-07-08T11:14:17;4.45;;;2.78;;
10467;SDS011;5281;48.878;9.394;2023-07-08T11:16:50;4.65;;;2.60;;
10467;SDS011;5281;48.878;9.394;2023-07-08T11:19:23;4.07;;;2.60;;
10467;SDS011;5281;48.878;9.394;2023-07-08T11:22:00;4.43;;;2.60;;
10467;SDS011;5281;48.878;9.394;2023-07-08T11:24:34;3.20;;;2.55;;
10467;SDS011;5281;48.878;9.394;2023-07-08T11:27:06;4.80;;;2.40;;
10467;SDS011;5281;48.878;9.394;2023-07-08T11:29:39;3.45;;;2.33;;
10467;SDS011;5281;48.878;9.394;2023-07-08T11:32:11;4.60;;;2.70;;
10467;SDS011;5281;48.878;9.394;2023-07-08T11:34:42;7.60;;;2.80;;
10467;SDS011;5281;48.878;9.394;2023-07-08T11:37:10;9.13;;;2.58;;
10467;SDS011;5281;48.878;9.394;2023-07-08T11:39:41;6.30;;;2.53;;
10467;SDS011;5281;48.878;9.394;2023-07-08T11:42:18;4.40;;;2.50;;
10467;SDS011;5281;48.878;9.394;2023-07-08T11:44:47;3.45;;;2.33;;
10467;SDS011;5281;48.878;9.394;2023-07-08T11:47:18;4.13;;;2.40;;
10467;SDS011;5281;48.878;9.394;2023-07-08T11:49:47;3.88;;;2.55;;
10467;SDS011;5281;48.878;9.394;2023-07-08T11:52:16;7.40;;;2.45;;
10467;SDS011;5281;48.878;9.394;2023-07-08T11:54:47;3.78;;;2.35;;
10467;SDS011;5281;48.878;9.394;2023-07-08T11:57:24;4.00;;;2.53;;
10467;SDS011;5281;48.878;9.394;2023-07-08T12:00:13;7.85;;;2.70;;
10467;SDS011;5281;48.878;9.394;2023-07-08T12:02:50;21.23;;;3.10;;
10467;SDS011;5281;48.878;9.394;2023-07-08T12:05:28;3.60;;;2.35;;
10467;SDS011;5281;48.878;9.394;2023-07-08T12:07:56;3.03;;;1.77;;
10467;SDS011;5281;48.878;9.394;2023-07-08T12:10:27;3.50;;;2.00;;
10467;SDS011;5281;48.878;9.394;2023-07-08T12:12:58;3.45;;;1.92;;
10467;SDS011;5281;48.878;9.394;2023-07-08T12:15:26;2.72;;;1.88;;
10467;SDS011;5281;48.878;9.394;2023-07-08T12:17:55;4.10;;;2.25;;
10467;SDS011;5281;48.878;9.394;2023-07-08T12:20:26;3.70;;;1.77;;
10467;SDS011;5281;48.878;9.394;2023-07-08T12:22:54;1.95;;;1.75;;
10467;SDS011;5281;48.878;9.394;2023-07-08T12:25:21;45.63;;;5.78;;
10467;SDS011;5281;48.878;9.394;2023-07-08T12:27:53;3.22;;;1.70;;
10467;SDS011;5281;48.878;9.394;2023-07-08T12:30:19;2.78;;;1.42;;
10467;SDS011;5281;48.878;9.394;2023-07-08T12:32:46;2.45;;;1.77;;
10467;SDS011;5281;48.878;9.394;2023-07-08T12:35:16;5.50;;;2.30;;
10467;SDS011;5281;48.878;9.394;2023-07-08T12:37:48;3.75;;;2.00;;
10467;SDS011;5281;48.878;9.394;2023-07-08T12:40:15;2.53;;;1.48;;
10467;SDS011;5281;48.878;9.394;2023-07-08T12:42:41;3.25;;;1.80;;
10467;SDS011;5281;48.878;9.394;2023-07-08T12:45:13;3.63;;;1.85;;
10467;SDS011;5281;48.878;9.394;2023-07-08T12:47:41;2.28;;;1.90;;
10467;SDS011;5281;48.878;9.394;2023-07-08T12:50:09;2.38;;;1.83;;
10467;SDS011;5281;48.878;9.394;2023-07-08T12:52:36;4.78;;;2.20;;
10467;SDS011;5281;48.878;9.394;2023-07-08T12:55:03;2.97;;;1.92;;
10467;SDS011;5281;48.878;9.394;2023-07-08T12:57:31;4.28;;;2.20;;
10467;SDS011;5281;48.878;9.394;2023-07-08T12:59:58;4.07;;;1.95;;
10467;SDS011;5281;48.878;9.394;2023-07-08T13:02:26;4.07;;;1.80;;
10467;SDS011;5281;48.878;9.394;2023-07-08T13:04:57;3.13;;;2.05;;
10467;SDS011;5281;48.878;9.394;2023-07-08T13:07:30;5.63;;;2.30;;
10467;SDS011;5281;48.878;9.394;2023-07-08T13:10:01;2.60;;;1.70;;
10467;SDS011;5281;48.878;9.394;2023-07-08T13:12:29;2.90;;;1.73;;
10467;SDS011;5281;48.878;9.394;2023-07-08T13:15:00;3.22;;;1.88;;
10467;SDS011;5281;48.878;9.394;2023-07-08T13:17:29;5.18;;;1.90;;
10467;SDS011;5281;48.878;9.394;2023-07-08T13:19:56;2.80;;;1.75;;
10467;SDS011;5281;48.878;9.394;2023-07-08T13:22:23;4.85;;;1.90;;
10467;SDS011;5281;48.878;9.394;2023-07-08T13:24:58;4.22;;;2.95;;
10467;SDS011;5281;48.878;9.394;2023-07-08T13:27:26;4.38;;;2.00;;
10467;SDS011;5281;48.878;9.394;2023-07-08T13:29:53;4.13;;;1.88;;
10467;SDS011;5281;48.878;9.394;2023-07-08T13:32:41;6.25;;;2.10;;
10467;SDS011;5281;48.878;9.394;2023-07-08T13:35:20;3.95;;;2.13;;
10467;SDS011;5281;48.878;9.394;2023-07-08T13:37:47;3.50;;;2.13;;
10467;SDS011;5281;48.878;9.394;2023-07-08T13:40:15;3.15;;;1.88;;
10467;SDS011;5281;48.878;9.394;2023-07-08T13:42:46;3.92;;;2.20;;
10467;SDS011;5281;48.878;9.394;2023-07-08T13:45:14;4.05;;;2.10;;
10467;SDS011;5281;48.878;9.394;2023-07-08T13:47:43;3.88;;;2.03;;
10467;SDS011;5281;48.878;9.394;2023-07-08T13:50:13;3.33;;;1.90;;
10467;SDS011;5281;48.878;9.394;2023-07-08T13:52:53;5.05;;;1.92;;
10467;SDS011;5281;48.878;9.394;2023-07-08T13:55:21;2.67;;;1.88;;
10467;SDS011;5281;48.878;9.394;2023-07-08T13:57:55;5.43;;;2.13;;
10467;SDS011;5281;48.878;9.394;2023-07-08T14:00:23;4.10;;;2.08;;
10467;SDS011;5281;48.878;9.394;2023-07-08T14:02:51;3.60;;;2.22;;
10467;SDS011;5281;48.878;9.394;2023-07-08T14:05:18;4.10;;;2.13;;
10467;SDS011;5281;48.878;9.394;2023-07-08T14:07:46;3.50;;;2.10;;
10467;SDS011;5281;48.878;9.394;2023-07-08T14:10:14;4.70;;;2.42;;
10467;SDS011;5281;48.878;9.394;2023-07-08T14:12:41;3.83;;;2.10;;
10467;SDS011;5281;48.878;9.394;2023-07-08T14:15:08;8.18;;;2.60;;
10467;SDS011;5281;48.878;9.394;2023-07-08T14:17:35;3.92;;;2.28;;
10467;SDS011;5281;48.878;9.394;2023-07-08T14:20:08;4.13;;;1.90;;
10467;SDS011;5281;48.878;9.394;2023-07-08T14:22:37;4.10;;;2.10;;
10467;SDS011;5281;48.878;9.394;2023-07-08T14:25:05;4.55;;;1.90;;
10467;SDS011;5281;48.878;9.394;2023-07-08T14:27:35;2.30;;;1.90;;
10467;SDS011;5281;48.878;9.394;2023-07-08T14:30:01;3.95;;;1.98;;
10467;SDS011;5281;48.878;9.394;2023-07-08T14:32:29;2.60;;;1.80;;
10467;SDS011;5281;48.878;9.394;2023-07-08T14:34:58;4.95;;;2.22;;
10467;SDS011;5281;48.878;9.394;2023-07-08T14:37:29;7.68;;;1.77;;
10467;SDS011;5281;48.878;9.394;2023-07-08T14:39:56;5.32;;;1.95;;
10467;SDS011;5281;48.878;9.394;2023-07-08T14:42:23;3.72;;;1.65;;
10467;SDS011;5281;48.878;9.394;2023-07-08T14:44:49;3.17;;;2.08;;
10467;SDS011;5281;48.878;9.394;2023-07-08T14:47:18;3.67;;;1.77;;
10467;SDS011;5281;48.878;9.394;2023-07-08T14:49:46;4.00;;;1.88;;
10467;SDS011;5281;48.878;9.394;2023-07-08T14:52:12;2.67;;;1.95;;
10467;SDS011;5281;48.878;9.394;2023-07-08T14:54:41;3.60;;;2.08;;
10467;SDS011;5281;48.878;9.394;2023-07-08T14:57:07;6.82;;;2.70;;
10467;SDS011;5281;48.878;9.394;2023-07-08T14:59:38;3.50;;;2.08;;
10467;SDS011;5281;48.878;9.394;2023-07-08T15:02:12;3.42;;;2.20;;
10467;SDS011;5281;48.878;9.394;2023-07-08T15:04:44;3.45;;;2.40;;
10467;SDS011;5281;48.878;9.394;2023-07-08T15:07:11;5.28;;;2.45;;
10467;SDS011;5281;48.878;9.394;2023-07-08T15:09:38;8.32;;;6.93;;
10467;SDS011;5281;48.878;9.394;2023-07-08T15:12:09;6.97;;;4.85;;
10467;SDS011;5281;48.878;9.394;2023-07-08T15:14:37;6.10;;;3.70;;